Quick Links (Output Below):   Max & Min Temps   /   Climate Reports   /   Zone Forecasts
River Forecasts   /   Forestry Forecasts   /   Aviation Forecasts   /   Radars   /   Features

Terminal Aerodrome Forecast (Little Rock)

Pick a Site:
Arkadelphia | El Dorado | Fayetteville | Fort Smith | Harrison | Highfill | Hot Springs | Jonesboro
Little Rock | Monticello | Mountain Home | Pine Bluff | Texarkana

KLIT 100520Z 1006/1106 01008KT P6SM BKN035
      TEMPO 1009/1013 5SM BR BKN025
     FM101500 03007KT P6SM SKC=

 Latest METARs (Observations) 
How to Decode METARs
06Z KLIT 100553Z 01006KT 10SM OVC037 17/13 A3021 RMK AO2 SLP232
         T01720128 10183 20161 403000161 51014
05Z KLIT 100453Z 02012KT 10SM OVC035 18/13 A3021 RMK AO2 SLP229 BINOVC
04Z KLIT 100353Z 02006KT 10SM BKN034 18/15 A3019 RMK AO2 SLP225
03Z KLIT 100253Z 01005KT 10SM BKN035 17/15 A3017 RMK AO2 SLP217
         T01720150 51011
02Z KLIT 100153Z 35005KT 10SM SCT030 17/15 A3016 RMK AO2 SLP213
01Z KLIT 100053Z 36005KT 10SM SCT030 SCT250 17/15 A3016 RMK AO2 SLP214
00Z KLIT 092353Z 01008KT 10SM FEW010 SCT065 BKN250 18/16 A3014 RMK AO2
         SLP207 60002 T01830156 10300 20183 53011
***** Today's Observations (Above) *****

23Z KLIT 092253Z 34011KT 10SM BKN010 BKN085 BKN250 19/18 A3013 RMK AO2
         RAE43 SLP203 P0002 T01940178
22Z KLIT 092153Z 36008KT 10SM -RA FEW015 BKN080 OVC120 21/17 A3012 RMK
         AO2 RAB11 SLP199 P0000 T02060172
21Z KLIT 092053Z 36011KT 10SM SCT040 BKN075 OVC100 22/17 A3011 RMK AO2
         SLP195 T02220172 53000
***** Yesterday's Observations (Above) *****

Back to Main Page

USA.gov is the U.S. government's official web portal to all federal, state and local government web resources and services.